sensor_id;sensor_type;location;lat;lon;timestamp;P1;durP1;ratioP1;P2;durP2;ratioP2
6791;SDS011;3433;48.730;9.108;2022-11-25T00:02:10;6.20;;;3.77;;
6791;SDS011;3433;48.730;9.108;2022-11-25T00:04:37;7.47;;;3.80;;
6791;SDS011;3433;48.730;9.108;2022-11-25T00:07:04;11.07;;;4.60;;
6791;SDS011;3433;48.730;9.108;2022-11-25T00:09:31;12.23;;;4.10;;
6791;SDS011;3433;48.730;9.108;2022-11-25T00:11:58;9.20;;;4.30;;
6791;SDS011;3433;48.730;9.108;2022-11-25T00:14:26;8.23;;;3.70;;
6791;SDS011;3433;48.730;9.108;2022-11-25T00:16:53;5.30;;;3.40;;
6791;SDS011;3433;48.730;9.108;2022-11-25T00:19:20;11.47;;;3.77;;
6791;SDS011;3433;48.730;9.108;2022-11-25T00:21:47;4.03;;;3.13;;
6791;SDS011;3433;48.730;9.108;2022-11-25T00:24:14;8.33;;;3.90;;
6791;SDS011;3433;48.730;9.108;2022-11-25T00:26:41;8.23;;;3.77;;
6791;SDS011;3433;48.730;9.108;2022-11-25T00:29:09;5.10;;;3.20;;
6791;SDS011;3433;48.730;9.108;2022-11-25T00:31:39;8.33;;;4.03;;
6791;SDS011;3433;48.730;9.108;2022-11-25T00:34:08;5.30;;;3.47;;
6791;SDS011;3433;48.730;9.108;2022-11-25T00:36:37;6.53;;;2.70;;
6791;SDS011;3433;48.730;9.108;2022-11-25T00:39:05;13.10;;;3.23;;
6791;SDS011;3433;48.730;9.108;2022-11-25T00:41:35;8.20;;;3.20;;
6791;SDS011;3433;48.730;9.108;2022-11-25T00:44:19;9.57;;;3.63;;
6791;SDS011;3433;48.730;9.108;2022-11-25T00:47:04;6.40;;;3.27;;
6791;SDS011;3433;48.730;9.108;2022-11-25T00:49:32;7.20;;;3.07;;
6791;SDS011;3433;48.730;9.108;2022-11-25T00:52:00;4.70;;;3.40;;
6791;SDS011;3433;48.730;9.108;2022-11-25T00:54:27;5.57;;;3.20;;
6791;SDS011;3433;48.730;9.108;2022-11-25T00:56:54;4.50;;;2.37;;
6791;SDS011;3433;48.730;9.108;2022-11-25T00:59:21;7.30;;;3.03;;
6791;SDS011;3433;48.730;9.108;2022-11-25T01:01:48;7.77;;;2.83;;
6791;SDS011;3433;48.730;9.108;2022-11-25T01:04:16;4.43;;;2.37;;
6791;SDS011;3433;48.730;9.108;2022-11-25T01:06:43;7.17;;;3.37;;
6791;SDS011;3433;48.730;9.108;2022-11-25T01:09:11;8.40;;;3.00;;
6791;SDS011;3433;48.730;9.108;2022-11-25T01:11:38;4.97;;;2.70;;
6791;SDS011;3433;48.730;9.108;2022-11-25T01:14:05;5.27;;;2.80;;
6791;SDS011;3433;48.730;9.108;2022-11-25T01:16:32;5.20;;;3.00;;
6791;SDS011;3433;48.730;9.108;2022-11-25T01:18:59;4.13;;;3.10;;
6791;SDS011;3433;48.730;9.108;2022-11-25T01:21:28;3.50;;;2.33;;
6791;SDS011;3433;48.730;9.108;2022-11-25T01:23:57;6.03;;;3.10;;
6791;SDS011;3433;48.730;9.108;2022-11-25T01:26:26;4.40;;;2.80;;
6791;SDS011;3433;48.730;9.108;2022-11-25T01:28:54;10.17;;;3.30;;
6791;SDS011;3433;48.730;9.108;2022-11-25T01:31:22;4.07;;;2.73;;
6791;SDS011;3433;48.730;9.108;2022-11-25T01:33:51;6.60;;;3.33;;
6791;SDS011;3433;48.730;9.108;2022-11-25T01:36:20;3.77;;;3.03;;
6791;SDS011;3433;48.730;9.108;2022-11-25T01:38:50;4.10;;;2.90;;
6791;SDS011;3433;48.730;9.108;2022-11-25T01:41:18;7.70;;;3.50;;
6791;SDS011;3433;48.730;9.108;2022-11-25T01:44:05;5.87;;;3.53;;
6791;SDS011;3433;48.730;9.108;2022-11-25T01:49:24;7.97;;;4.03;;
6791;SDS011;3433;48.730;9.108;2022-11-25T01:51:55;5.33;;;3.30;;
6791;SDS011;3433;48.730;9.108;2022-11-25T01:54:28;7.83;;;3.40;;
6791;SDS011;3433;48.730;9.108;2022-11-25T01:57:00;6.83;;;3.63;;
6791;SDS011;3433;48.730;9.108;2022-11-25T01:59:31;8.63;;;3.60;;
6791;SDS011;3433;48.730;9.108;2022-11-25T02:02:03;7.77;;;3.63;;
6791;SDS011;3433;48.730;9.108;2022-11-25T02:04:31;7.10;;;3.40;;
6791;SDS011;3433;48.730;9.108;2022-11-25T02:07:02;4.10;;;2.93;;
6791;SDS011;3433;48.730;9.108;2022-11-25T02:09:34;6.33;;;3.70;;
6791;SDS011;3433;48.730;9.108;2022-11-25T02:12:03;6.17;;;3.60;;
6791;SDS011;3433;48.730;9.108;2022-11-25T02:14:32;5.40;;;3.37;;
6791;SDS011;3433;48.730;9.108;2022-11-25T02:17:19;9.70;;;3.70;;
6791;SDS011;3433;48.730;9.108;2022-11-25T02:19:57;9.23;;;3.33;;
6791;SDS011;3433;48.730;9.108;2022-11-25T02:22:31;7.43;;;3.70;;
6791;SDS011;3433;48.730;9.108;2022-11-25T02:25:13;7.03;;;3.57;;
6791;SDS011;3433;48.730;9.108;2022-11-25T02:27:42;6.23;;;3.47;;
6791;SDS011;3433;48.730;9.108;2022-11-25T02:30:13;9.23;;;3.53;;
6791;SDS011;3433;48.730;9.108;2022-11-25T02:32:43;4.30;;;3.47;;
6791;SDS011;3433;48.730;9.108;2022-11-25T02:35:25;7.40;;;3.03;;
6791;SDS011;3433;48.730;9.108;2022-11-25T02:37:54;10.60;;;3.60;;
6791;SDS011;3433;48.730;9.108;2022-11-25T02:40:26;8.90;;;3.27;;
6791;SDS011;3433;48.730;9.108;2022-11-25T02:42:55;4.93;;;3.00;;
6791;SDS011;3433;48.730;9.108;2022-11-25T02:45:27;7.33;;;2.80;;
6791;SDS011;3433;48.730;9.108;2022-11-25T02:48:00;4.27;;;3.33;;
6791;SDS011;3433;48.730;9.108;2022-11-25T02:50:28;4.70;;;3.10;;
6791;SDS011;3433;48.730;9.108;2022-11-25T02:52:55;4.53;;;2.97;;
6791;SDS011;3433;48.730;9.108;2022-11-25T02:55:22;5.20;;;3.00;;
6791;SDS011;3433;48.730;9.108;2022-11-25T02:57:50;4.80;;;2.80;;
6791;SDS011;3433;48.730;9.108;2022-11-25T03:00:18;6.80;;;3.07;;
6791;SDS011;3433;48.730;9.108;2022-11-25T03:02:45;4.23;;;2.97;;
6791;SDS011;3433;48.730;9.108;2022-11-25T03:05:12;7.23;;;3.27;;
6791;SDS011;3433;48.730;9.108;2022-11-25T03:07:39;5.77;;;3.23;;
6791;SDS011;3433;48.730;9.108;2022-11-25T03:10:06;6.60;;;3.30;;
6791;SDS011;3433;48.730;9.108;2022-11-25T03:12:34;7.23;;;2.93;;
6791;SDS011;3433;48.730;9.108;2022-11-25T03:15:05;4.30;;;2.43;;
6791;SDS011;3433;48.730;9.108;2022-11-25T03:17:33;8.27;;;2.90;;
6791;SDS011;3433;48.730;9.108;2022-11-25T03:20:00;3.80;;;3.00;;
6791;SDS011;3433;48.730;9.108;2022-11-25T03:22:27;4.57;;;4.17;;
6791;SDS011;3433;48.730;9.108;2022-11-25T03:24:54;9.40;;;3.40;;
6791;SDS011;3433;48.730;9.108;2022-11-25T03:27:21;6.20;;;3.30;;
6791;SDS011;3433;48.730;9.108;2022-11-25T03:29:48;7.43;;;2.83;;
6791;SDS011;3433;48.730;9.108;2022-11-25T03:32:16;6.13;;;3.20;;
6791;SDS011;3433;48.730;9.108;2022-11-25T03:34:43;4.33;;;3.20;;
6791;SDS011;3433;48.730;9.108;2022-11-25T03:37:10;7.97;;;3.80;;
6791;SDS011;3433;48.730;9.108;2022-11-25T03:39:37;11.73;;;4.17;;
6791;SDS011;3433;48.730;9.108;2022-11-25T03:42:04;7.23;;;3.63;;
6791;SDS011;3433;48.730;9.108;2022-11-25T03:44:31;5.40;;;3.77;;
6791;SDS011;3433;48.730;9.108;2022-11-25T03:46:58;5.40;;;3.77;;
6791;SDS011;3433;48.730;9.108;2022-11-25T03:49:26;7.67;;;4.30;;
6791;SDS011;3433;48.730;9.108;2022-11-25T03:51:53;5.57;;;2.90;;
6791;SDS011;3433;48.730;9.108;2022-11-25T03:54:20;8.93;;;4.07;;
6791;SDS011;3433;48.730;9.108;2022-11-25T03:56:47;6.43;;;3.90;;
6791;SDS011;3433;48.730;9.108;2022-11-25T03:59:14;8.73;;;3.90;;
6791;SDS011;3433;48.730;9.108;2022-11-25T04:01:41;8.20;;;3.70;;
6791;SDS011;3433;48.730;9.108;2022-11-25T04:04:07;8.53;;;4.20;;
6791;SDS011;3433;48.730;9.108;2022-11-25T04:06:36;6.63;;;3.60;;
6791;SDS011;3433;48.730;9.108;2022-11-25T04:09:03;7.40;;;4.17;;
6791;SDS011;3433;48.730;9.108;2022-11-25T04:11:30;7.57;;;3.60;;
6791;SDS011;3433;48.730;9.108;2022-11-25T04:14:11;6.67;;;3.50;;
6791;SDS011;3433;48.730;9.108;2022-11-25T04:16:38;6.40;;;3.83;;
6791;SDS011;3433;48.730;9.108;2022-11-25T04:19:05;8.20;;;3.80;;
6791;SDS011;3433;48.730;9.108;2022-11-25T04:21:32;6.40;;;3.83;;
6791;SDS011;3433;48.730;9.108;2022-11-25T04:24:00;4.20;;;3.13;;
6791;SDS011;3433;48.730;9.108;2022-11-25T04:26:27;6.87;;;4.13;;
6791;SDS011;3433;48.730;9.108;2022-11-25T04:28:54;12.27;;;3.90;;
6791;SDS011;3433;48.730;9.108;2022-11-25T04:31:21;7.27;;;3.57;;
6791;SDS011;3433;48.730;9.108;2022-11-25T04:33:48;6.80;;;3.23;;
6791;SDS011;3433;48.730;9.108;2022-11-25T04:36:15;3.77;;;3.43;;
6791;SDS011;3433;48.730;9.108;2022-11-25T04:38:42;4.90;;;3.17;;
6791;SDS011;3433;48.730;9.108;2022-11-25T04:41:10;5.23;;;3.60;;
6791;SDS011;3433;48.730;9.108;2022-11-25T04:43:37;5.50;;;3.50;;
6791;SDS011;3433;48.730;9.108;2022-11-25T04:46:04;12.20;;;4.20;;
6791;SDS011;3433;48.730;9.108;2022-11-25T04:48:31;5.87;;;4.27;;
6791;SDS011;3433;48.730;9.108;2022-11-25T04:50:58;4.80;;;3.50;;
6791;SDS011;3433;48.730;9.108;2022-11-25T04:53:25;6.20;;;3.43;;
6791;SDS011;3433;48.730;9.108;2022-11-25T04:55:52;6.73;;;4.10;;
6791;SDS011;3433;48.730;9.108;2022-11-25T04:58:20;7.33;;;4.67;;
6791;SDS011;3433;48.730;9.108;2022-11-25T05:01:01;6.70;;;3.40;;
6791;SDS011;3433;48.730;9.108;2022-11-25T05:03:28;6.93;;;4.17;;
6791;SDS011;3433;48.730;9.108;2022-11-25T05:05:55;6.53;;;4.50;;
6791;SDS011;3433;48.730;9.108;2022-11-25T05:08:22;7.93;;;3.60;;
6791;SDS011;3433;48.730;9.108;2022-11-25T05:10:49;10.13;;;3.80;;
6791;SDS011;3433;48.730;9.108;2022-11-25T05:13:16;6.77;;;3.37;;
6791;SDS011;3433;48.730;9.108;2022-11-25T05:15:44;9.50;;;3.73;;
6791;SDS011;3433;48.730;9.108;2022-11-25T05:18:11;5.33;;;4.00;;
6791;SDS011;3433;48.730;9.108;2022-11-25T05:20:38;5.47;;;3.30;;
6791;SDS011;3433;48.730;9.108;2022-11-25T05:23:05;10.67;;;5.00;;
6791;SDS011;3433;48.730;9.108;2022-11-25T05:25:32;8.07;;;4.20;;
6791;SDS011;3433;48.730;9.108;2022-11-25T05:27:59;9.40;;;3.80;;
6791;SDS011;3433;48.730;9.108;2022-11-25T05:30:26;7.70;;;3.83;;
6791;SDS011;3433;48.730;9.108;2022-11-25T05:32:54;12.90;;;4.83;;
6791;SDS011;3433;48.730;9.108;2022-11-25T05:35:21;9.77;;;4.93;;
6791;SDS011;3433;48.730;9.108;2022-11-25T05:37:48;7.60;;;4.73;;
6791;SDS011;3433;48.730;9.108;2022-11-25T05:40:15;6.00;;;4.07;;
6791;SDS011;3433;48.730;9.108;2022-11-25T05:42:42;11.23;;;4.83;;
6791;SDS011;3433;48.730;9.108;2022-11-25T05:45:09;9.57;;;5.10;;
6791;SDS011;3433;48.730;9.108;2022-11-25T05:47:36;7.33;;;4.60;;
6791;SDS011;3433;48.730;9.108;2022-11-25T05:50:05;7.60;;;4.60;;
6791;SDS011;3433;48.730;9.108;2022-11-25T05:52:33;7.27;;;4.77;;
6791;SDS011;3433;48.730;9.108;2022-11-25T05:55:00;6.30;;;4.00;;
6791;SDS011;3433;48.730;9.108;2022-11-25T05:57:27;7.37;;;4.63;;
6791;SDS011;3433;48.730;9.108;2022-11-25T05:59:54;6.10;;;3.40;;
6791;SDS011;3433;48.730;9.108;2022-11-25T06:02:21;12.40;;;5.60;;
6791;SDS011;3433;48.730;9.108;2022-11-25T06:04:47;15.03;;;7.10;;
6791;SDS011;3433;48.730;9.108;2022-11-25T06:07:16;23.80;;;11.83;;
6791;SDS011;3433;48.730;9.108;2022-11-25T06:09:43;39.63;;;18.47;;
6791;SDS011;3433;48.730;9.108;2022-11-25T06:12:09;23.00;;;13.50;;
6791;SDS011;3433;48.730;9.108;2022-11-25T06:14:36;11.73;;;6.00;;
6791;SDS011;3433;48.730;9.108;2022-11-25T06:17:03;6.60;;;3.80;;
6791;SDS011;3433;48.730;9.108;2022-11-25T06:19:30;8.27;;;5.40;;
6791;SDS011;3433;48.730;9.108;2022-11-25T06:21:57;9.90;;;5.37;;
6791;SDS011;3433;48.730;9.108;2022-11-25T06:24:25;10.60;;;5.23;;
6791;SDS011;3433;48.730;9.108;2022-11-25T06:26:52;6.93;;;4.93;;
6791;SDS011;3433;48.730;9.108;2022-11-25T06:29:19;5.77;;;4.37;;
6791;SDS011;3433;48.730;9.108;2022-11-25T06:31:47;4.47;;;3.73;;
6791;SDS011;3433;48.730;9.108;2022-11-25T06:34:14;7.53;;;4.27;;
6791;SDS011;3433;48.730;9.108;2022-11-25T06:36:41;7.20;;;4.17;;
6791;SDS011;3433;48.730;9.108;2022-11-25T06:39:08;5.83;;;3.80;;
6791;SDS011;3433;48.730;9.108;2022-11-25T06:41:37;6.60;;;4.13;;
6791;SDS011;3433;48.730;9.108;2022-11-25T06:44:03;7.47;;;4.33;;
6791;SDS011;3433;48.730;9.108;2022-11-25T06:46:30;6.10;;;4.17;;
6791;SDS011;3433;48.730;9.108;2022-11-25T06:48:58;7.33;;;4.70;;
6791;SDS011;3433;48.730;9.108;2022-11-25T06:51:25;6.17;;;4.67;;
6791;SDS011;3433;48.730;9.108;2022-11-25T06:53:52;5.07;;;4.20;;
6791;SDS011;3433;48.730;9.108;2022-11-25T06:56:20;6.70;;;4.50;;
6791;SDS011;3433;48.730;9.108;2022-11-25T06:58:50;8.40;;;4.67;;
6791;SDS011;3433;48.730;9.108;2022-11-25T07:01:19;6.93;;;4.53;;
6791;SDS011;3433;48.730;9.108;2022-11-25T07:03:49;7.77;;;4.20;;
6791;SDS011;3433;48.730;9.108;2022-11-25T07:06:18;4.53;;;3.30;;
6791;SDS011;3433;48.730;9.108;2022-11-25T07:08:46;6.73;;;4.10;;
6791;SDS011;3433;48.730;9.108;2022-11-25T07:11:15;7.40;;;3.70;;
6791;SDS011;3433;48.730;9.108;2022-11-25T07:13:43;4.43;;;3.60;;
6791;SDS011;3433;48.730;9.108;2022-11-25T07:16:11;8.83;;;4.63;;
6791;SDS011;3433;48.730;9.108;2022-11-25T07:18:39;8.90;;;5.70;;
6791;SDS011;3433;48.730;9.108;2022-11-25T07:21:08;16.13;;;6.60;;
6791;SDS011;3433;48.730;9.108;2022-11-25T07:23:36;7.90;;;4.97;;
6791;SDS011;3433;48.730;9.108;2022-11-25T07:26:04;8.93;;;4.90;;
6791;SDS011;3433;48.730;9.108;2022-11-25T07:28:33;7.77;;;4.90;;
6791;SDS011;3433;48.730;9.108;2022-11-25T07:31:05;10.33;;;4.87;;
6791;SDS011;3433;48.730;9.108;2022-11-25T07:33:34;6.20;;;4.83;;
6791;SDS011;3433;48.730;9.108;2022-11-25T07:36:02;6.70;;;4.53;;
6791;SDS011;3433;48.730;9.108;2022-11-25T07:38:30;11.70;;;4.90;;
6791;SDS011;3433;48.730;9.108;2022-11-25T07:41:02;10.73;;;5.23;;
6791;SDS011;3433;48.730;9.108;2022-11-25T07:43:30;8.13;;;4.20;;
6791;SDS011;3433;48.730;9.108;2022-11-25T07:46:06;4.70;;;3.50;;
6791;SDS011;3433;48.730;9.108;2022-11-25T07:48:36;4.23;;;3.30;;
6791;SDS011;3433;48.730;9.108;2022-11-25T07:51:03;7.40;;;2.90;;
6791;SDS011;3433;48.730;9.108;2022-11-25T07:53:30;4.53;;;3.03;;
6791;SDS011;3433;48.730;9.108;2022-11-25T07:55:59;3.77;;;2.50;;
6791;SDS011;3433;48.730;9.108;2022-11-25T07:58:27;5.10;;;2.93;;
6791;SDS011;3433;48.730;9.108;2022-11-25T08:00:54;5.20;;;2.60;;
6791;SDS011;3433;48.730;9.108;2022-11-25T08:03:21;6.20;;;2.80;;
6791;SDS011;3433;48.730;9.108;2022-11-25T08:05:49;5.93;;;3.10;;
6791;SDS011;3433;48.730;9.108;2022-11-25T08:08:16;7.90;;;2.50;;
6791;SDS011;3433;48.730;9.108;2022-11-25T08:10:43;4.27;;;3.23;;
6791;SDS011;3433;48.730;9.108;2022-11-25T08:13:10;5.60;;;3.27;;
6791;SDS011;3433;48.730;9.108;2022-11-25T08:15:37;3.37;;;2.87;;
6791;SDS011;3433;48.730;9.108;2022-11-25T08:18:04;10.03;;;2.57;;
6791;SDS011;3433;48.730;9.108;2022-11-25T08:20:31;5.97;;;2.80;;
6791;SDS011;3433;48.730;9.108;2022-11-25T08:22:59;2.87;;;2.27;;
6791;SDS011;3433;48.730;9.108;2022-11-25T08:25:26;5.90;;;2.50;;
6791;SDS011;3433;48.730;9.108;2022-11-25T08:27:55;6.67;;;3.37;;
6791;SDS011;3433;48.730;9.108;2022-11-25T08:30:24;5.50;;;2.93;;
6791;SDS011;3433;48.730;9.108;2022-11-25T08:32:51;3.97;;;2.60;;
6791;SDS011;3433;48.730;9.108;2022-11-25T08:35:18;4.63;;;3.00;;
6791;SDS011;3433;48.730;9.108;2022-11-25T08:37:45;5.17;;;2.30;;
6791;SDS011;3433;48.730;9.108;2022-11-25T08:40:14;5.50;;;2.40;;
6791;SDS011;3433;48.730;9.108;2022-11-25T08:42:41;4.57;;;2.57;;
6791;SDS011;3433;48.730;9.108;2022-11-25T08:45:08;4.23;;;2.57;;
6791;SDS011;3433;48.730;9.108;2022-11-25T08:47:36;3.73;;;2.23;;
6791;SDS011;3433;48.730;9.108;2022-11-25T08:50:04;5.83;;;3.03;;
6791;SDS011;3433;48.730;9.108;2022-11-25T08:52:33;4.30;;;2.40;;
6791;SDS011;3433;48.730;9.108;2022-11-25T08:55:01;3.27;;;2.80;;
6791;SDS011;3433;48.730;9.108;2022-11-25T08:57:29;6.20;;;2.70;;
6791;SDS011;3433;48.730;9.108;2022-11-25T08:59:56;4.73;;;3.00;;
6791;SDS011;3433;48.730;9.108;2022-11-25T09:02:23;4.87;;;2.73;;
6791;SDS011;3433;48.730;9.108;2022-11-25T09:04:50;4.80;;;2.73;;
6791;SDS011;3433;48.730;9.108;2022-11-25T09:07:17;4.30;;;3.30;;
6791;SDS011;3433;48.730;9.108;2022-11-25T09:09:44;4.80;;;3.03;;
6791;SDS011;3433;48.730;9.108;2022-11-25T09:12:11;3.03;;;2.10;;
6791;SDS011;3433;48.730;9.108;2022-11-25T09:14:40;4.80;;;2.60;;
6791;SDS011;3433;48.730;9.108;2022-11-25T09:17:07;4.43;;;2.60;;
6791;SDS011;3433;48.730;9.108;2022-11-25T09:19:35;6.90;;;3.33;;
6791;SDS011;3433;48.730;9.108;2022-11-25T09:22:03;4.70;;;2.70;;
6791;SDS011;3433;48.730;9.108;2022-11-25T09:24:30;4.53;;;2.43;;
6791;SDS011;3433;48.730;9.108;2022-11-25T09:26:57;5.80;;;2.77;;
6791;SDS011;3433;48.730;9.108;2022-11-25T09:29:24;4.37;;;2.40;;
6791;SDS011;3433;48.730;9.108;2022-11-25T09:31:53;3.87;;;2.40;;
6791;SDS011;3433;48.730;9.108;2022-11-25T09:34:20;6.50;;;2.60;;
6791;SDS011;3433;48.730;9.108;2022-11-25T09:36:47;5.07;;;2.60;;
6791;SDS011;3433;48.730;9.108;2022-11-25T09:39:14;4.93;;;2.77;;
6791;SDS011;3433;48.730;9.108;2022-11-25T09:41:53;3.93;;;2.67;;
6791;SDS011;3433;48.730;9.108;2022-11-25T09:44:50;5.93;;;2.63;;
6791;SDS011;3433;48.730;9.108;2022-11-25T09:47:49;3.90;;;3.00;;
6791;SDS011;3433;48.730;9.108;2022-11-25T09:50:28;6.83;;;2.53;;
6791;SDS011;3433;48.730;9.108;2022-11-25T09:53:08;3.17;;;2.87;;
6791;SDS011;3433;48.730;9.108;2022-11-25T09:55:43;7.70;;;3.10;;
6791;SDS011;3433;48.730;9.108;2022-11-25T09:58:15;5.00;;;3.03;;
6791;SDS011;3433;48.730;9.108;2022-11-25T10:00:49;3.27;;;2.20;;
6791;SDS011;3433;48.730;9.108;2022-11-25T10:03:22;5.67;;;2.50;;
6791;SDS011;3433;48.730;9.108;2022-11-25T10:06:01;4.33;;;2.60;;
6791;SDS011;3433;48.730;9.108;2022-11-25T10:08:32;4.20;;;2.53;;
6791;SDS011;3433;48.730;9.108;2022-11-25T10:11:06;5.23;;;2.90;;
6791;SDS011;3433;48.730;9.108;2022-11-25T10:13:43;4.70;;;2.17;;
6791;SDS011;3433;48.730;9.108;2022-11-25T10:16:18;3.87;;;2.73;;
6791;SDS011;3433;48.730;9.108;2022-11-25T10:18:56;5.03;;;2.47;;
6791;SDS011;3433;48.730;9.108;2022-11-25T10:21:26;4.10;;;2.50;;
6791;SDS011;3433;48.730;9.108;2022-11-25T10:23:53;4.40;;;2.67;;
6791;SDS011;3433;48.730;9.108;2022-11-25T10:26:21;3.87;;;2.50;;
6791;SDS011;3433;48.730;9.108;2022-11-25T10:28:56;4.87;;;2.13;;
6791;SDS011;3433;48.730;9.108;2022-11-25T10:31:38;3.63;;;2.33;;
6791;SDS011;3433;48.730;9.108;2022-11-25T10:34:10;4.70;;;1.93;;
6791;SDS011;3433;48.730;9.108;2022-11-25T10:36:45;4.20;;;1.97;;
6791;SDS011;3433;48.730;9.108;2022-11-25T10:39:16;6.80;;;2.50;;
6791;SDS011;3433;48.730;9.108;2022-11-25T10:41:49;6.67;;;1.97;;
6791;SDS011;3433;48.730;9.108;2022-11-25T10:44:23;3.93;;;1.97;;
6791;SDS011;3433;48.730;9.108;2022-11-25T10:46:54;7.17;;;2.30;;
6791;SDS011;3433;48.730;9.108;2022-11-25T10:49:35;3.80;;;1.90;;
6791;SDS011;3433;48.730;9.108;2022-11-25T10:52:11;4.03;;;1.80;;
6791;SDS011;3433;48.730;9.108;2022-11-25T10:54:39;4.33;;;2.10;;
6791;SDS011;3433;48.730;9.108;2022-11-25T10:57:15;4.10;;;2.30;;
6791;SDS011;3433;48.730;9.108;2022-11-25T10:59:52;13.50;;;2.13;;
6791;SDS011;3433;48.730;9.108;2022-11-25T11:02:23;5.13;;;2.00;;
6791;SDS011;3433;48.730;9.108;2022-11-25T11:04:54;4.13;;;2.00;;
6791;SDS011;3433;48.730;9.108;2022-11-25T11:07:23;6.50;;;2.13;;
6791;SDS011;3433;48.730;9.108;2022-11-25T11:09:52;4.73;;;2.40;;
6791;SDS011;3433;48.730;9.108;2022-11-25T11:12:20;3.23;;;2.10;;
6791;SDS011;3433;48.730;9.108;2022-11-25T11:14:49;7.60;;;2.50;;
6791;SDS011;3433;48.730;9.108;2022-11-25T11:17:28;5.17;;;2.23;;
6791;SDS011;3433;48.730;9.108;2022-11-25T11:20:03;3.37;;;1.80;;
6791;SDS011;3433;48.730;9.108;2022-11-25T11:22:45;4.13;;;2.03;;
6791;SDS011;3433;48.730;9.108;2022-11-25T11:25:25;4.40;;;2.23;;
6791;SDS011;3433;48.730;9.108;2022-11-25T11:27:54;3.67;;;2.20;;
6791;SDS011;3433;48.730;9.108;2022-11-25T11:30:23;6.70;;;2.50;;
6791;SDS011;3433;48.730;9.108;2022-11-25T11:32:56;5.73;;;2.13;;
6791;SDS011;3433;48.730;9.108;2022-11-25T11:35:28;3.93;;;2.17;;
6791;SDS011;3433;48.730;9.108;2022-11-25T11:38:23;4.73;;;2.40;;
6791;SDS011;3433;48.730;9.108;2022-11-25T11:40:59;6.40;;;2.27;;
6791;SDS011;3433;48.730;9.108;2022-11-25T11:43:40;3.83;;;2.30;;
6791;SDS011;3433;48.730;9.108;2022-11-25T11:46:22;5.70;;;2.80;;
6791;SDS011;3433;48.730;9.108;2022-11-25T11:49:01;3.90;;;2.30;;
6791;SDS011;3433;48.730;9.108;2022-11-25T11:51:51;7.83;;;2.33;;
6791;SDS011;3433;48.730;9.108;2022-11-25T11:54:25;3.60;;;2.47;;
6791;SDS011;3433;48.730;9.108;2022-11-25T11:57:01;6.13;;;2.47;;
6791;SDS011;3433;48.730;9.108;2022-11-25T11:59:39;4.93;;;2.30;;
6791;SDS011;3433;48.730;9.108;2022-11-25T12:02:23;5.07;;;2.63;;
6791;SDS011;3433;48.730;9.108;2022-11-25T12:05:00;6.10;;;2.70;;
6791;SDS011;3433;48.730;9.108;2022-11-25T12:07:33;5.40;;;2.70;;
6791;SDS011;3433;48.730;9.108;2022-11-25T12:10:05;5.50;;;2.90;;
6791;SDS011;3433;48.730;9.108;2022-11-25T12:12:44;7.57;;;2.63;;
6791;SDS011;3433;48.730;9.108;2022-11-25T12:15:16;4.13;;;2.80;;
6791;SDS011;3433;48.730;9.108;2022-11-25T12:17:49;6.27;;;3.80;;
6791;SDS011;3433;48.730;9.108;2022-11-25T12:20:27;7.20;;;3.30;;
6791;SDS011;3433;48.730;9.108;2022-11-25T12:23:05;8.40;;;3.10;;
6791;SDS011;3433;48.730;9.108;2022-11-25T12:25:37;6.60;;;3.13;;
6791;SDS011;3433;48.730;9.108;2022-11-25T12:28:07;7.27;;;3.30;;
6791;SDS011;3433;48.730;9.108;2022-11-25T12:30:37;6.00;;;3.03;;
6791;SDS011;3433;48.730;9.108;2022-11-25T12:33:11;6.40;;;3.40;;
6791;SDS011;3433;48.730;9.108;2022-11-25T12:35:48;7.57;;;3.47;;
6791;SDS011;3433;48.730;9.108;2022-11-25T12:38:29;5.50;;;2.90;;
6791;SDS011;3433;48.730;9.108;2022-11-25T12:41:07;6.73;;;2.97;;
6791;SDS011;3433;48.730;9.108;2022-11-25T12:43:44;7.70;;;2.93;;
6791;SDS011;3433;48.730;9.108;2022-11-25T12:46:18;5.43;;;2.83;;
6791;SDS011;3433;48.730;9.108;2022-11-25T12:48:49;6.83;;;3.00;;
6791;SDS011;3433;48.730;9.108;2022-11-25T12:51:22;4.00;;;2.70;;
6791;SDS011;3433;48.730;9.108;2022-11-25T12:54:03;7.97;;;3.67;;
6791;SDS011;3433;48.730;9.108;2022-11-25T12:56:47;6.70;;;3.40;;
6791;SDS011;3433;48.730;9.108;2022-11-25T12:59:30;8.17;;;3.20;;
6791;SDS011;3433;48.730;9.108;2022-11-25T13:02:34;6.70;;;3.60;;
6791;SDS011;3433;48.730;9.108;2022-11-25T13:05:21;6.30;;;4.23;;
6791;SDS011;3433;48.730;9.108;2022-11-25T13:08:05;10.20;;;4.50;;
6791;SDS011;3433;48.730;9.108;2022-11-25T13:10:48;8.07;;;6.33;;
6791;SDS011;3433;48.730;9.108;2022-11-25T13:13:32;12.07;;;6.03;;
6791;SDS011;3433;48.730;9.108;2022-11-25T13:16:07;10.03;;;3.90;;
6791;SDS011;3433;48.730;9.108;2022-11-25T13:18:37;10.67;;;4.17;;
6791;SDS011;3433;48.730;9.108;2022-11-25T13:21:08;11.00;;;4.50;;
6791;SDS011;3433;48.730;9.108;2022-11-25T13:23:44;7.67;;;4.13;;
6791;SDS011;3433;48.730;9.108;2022-11-25T13:32:24;7.73;;;3.80;;
6791;SDS011;3433;48.730;9.108;2022-11-25T13:37:56;8.60;;;4.50;;
6791;SDS011;3433;48.730;9.108;2022-11-25T13:40:30;5.67;;;3.37;;
6791;SDS011;3433;48.730;9.108;2022-11-25T13:43:02;5.63;;;2.87;;
6791;SDS011;3433;48.730;9.108;2022-11-25T13:45:31;5.30;;;3.10;;
6791;SDS011;3433;48.730;9.108;2022-11-25T13:48:03;5.37;;;2.63;;
6791;SDS011;3433;48.730;9.108;2022-11-25T13:50:31;5.53;;;3.33;;
6791;SDS011;3433;48.730;9.108;2022-11-25T13:52:59;7.10;;;3.23;;
6791;SDS011;3433;48.730;9.108;2022-11-25T13:55:32;5.50;;;3.00;;
6791;SDS011;3433;48.730;9.108;2022-11-25T13:58:03;6.70;;;2.70;;
6791;SDS011;3433;48.730;9.108;2022-11-25T14:00:42;5.47;;;2.87;;
6791;SDS011;3433;48.730;9.108;2022-11-25T14:03:42;3.30;;;2.20;;
6791;SDS011;3433;48.730;9.108;2022-11-25T14:06:23;7.03;;;2.87;;
6791;SDS011;3433;48.730;9.108;2022-11-25T14:09:17;4.00;;;2.50;;
6791;SDS011;3433;48.730;9.108;2022-11-25T14:12:01;6.87;;;2.90;;
6791;SDS011;3433;48.730;9.108;2022-11-25T14:15:07;8.07;;;2.27;;
6791;SDS011;3433;48.730;9.108;2022-11-25T14:21:20;6.30;;;3.00;;
6791;SDS011;3433;48.730;9.108;2022-11-25T14:24:29;5.20;;;2.53;;
6791;SDS011;3433;48.730;9.108;2022-11-25T14:27:23;2.57;;;2.30;;
6791;SDS011;3433;48.730;9.108;2022-11-25T14:29:53;8.20;;;2.40;;
6791;SDS011;3433;48.730;9.108;2022-11-25T14:32:27;4.80;;;2.47;;
6791;SDS011;3433;48.730;9.108;2022-11-25T14:35:01;4.30;;;2.87;;
6791;SDS011;3433;48.730;9.108;2022-11-25T14:37:34;5.50;;;2.10;;
6791;SDS011;3433;48.730;9.108;2022-11-25T14:40:07;5.63;;;2.67;;
6791;SDS011;3433;48.730;9.108;2022-11-25T14:42:39;4.77;;;1.80;;
6791;SDS011;3433;48.730;9.108;2022-11-25T14:45:18;5.70;;;2.30;;
6791;SDS011;3433;48.730;9.108;2022-11-25T14:47:48;10.80;;;2.70;;
6791;SDS011;3433;48.730;9.108;2022-11-25T14:50:15;6.30;;;2.70;;
6791;SDS011;3433;48.730;9.108;2022-11-25T14:52:42;14.37;;;2.30;;
6791;SDS011;3433;48.730;9.108;2022-11-25T14:55:12;7.00;;;2.10;;
6791;SDS011;3433;48.730;9.108;2022-11-25T14:57:42;8.13;;;2.10;;
6791;SDS011;3433;48.730;9.108;2022-11-25T15:00:10;4.67;;;2.13;;
6791;SDS011;3433;48.730;9.108;2022-11-25T15:02:40;15.13;;;4.53;;
6791;SDS011;3433;48.730;9.108;2022-11-25T15:05:19;11.70;;;2.50;;
6791;SDS011;3433;48.730;9.108;2022-11-25T15:07:55;4.53;;;1.93;;
6791;SDS011;3433;48.730;9.108;2022-11-25T15:10:27;4.70;;;1.70;;
6791;SDS011;3433;48.730;9.108;2022-11-25T15:12:58;3.33;;;2.00;;
6791;SDS011;3433;48.730;9.108;2022-11-25T15:15:34;5.50;;;1.83;;
6791;SDS011;3433;48.730;9.108;2022-11-25T15:18:03;6.37;;;2.03;;
6791;SDS011;3433;48.730;9.108;2022-11-25T15:20:32;6.73;;;1.80;;
6791;SDS011;3433;48.730;9.108;2022-11-25T15:23:00;5.33;;;1.80;;
6791;SDS011;3433;48.730;9.108;2022-11-25T15:25:27;4.60;;;2.50;;
6791;SDS011;3433;48.730;9.108;2022-11-25T15:27:54;7.57;;;2.10;;
6791;SDS011;3433;48.730;9.108;2022-11-25T15:30:22;7.90;;;2.43;;
6791;SDS011;3433;48.730;9.108;2022-11-25T15:32:53;5.67;;;2.47;;
6791;SDS011;3433;48.730;9.108;2022-11-25T15:35:21;9.20;;;2.60;;
6791;SDS011;3433;48.730;9.108;2022-11-25T15:37:52;5.43;;;1.90;;
6791;SDS011;3433;48.730;9.108;2022-11-25T15:40:29;2.80;;;1.80;;
6791;SDS011;3433;48.730;9.108;2022-11-25T15:42:57;8.70;;;1.97;;
6791;SDS011;3433;48.730;9.108;2022-11-25T15:45:26;5.57;;;2.43;;
6791;SDS011;3433;48.730;9.108;2022-11-25T15:47:58;8.17;;;2.07;;
6791;SDS011;3433;48.730;9.108;2022-11-25T15:50:25;8.23;;;2.53;;
6791;SDS011;3433;48.730;9.108;2022-11-25T15:52:55;9.07;;;2.13;;
6791;SDS011;3433;48.730;9.108;2022-11-25T15:55:26;7.90;;;2.03;;